createdAt,value
2019-06-20T00:01:26.495Z,17.30
2019-06-20T00:03:54.139Z,17.40
2019-06-20T00:06:21.802Z,17.60
2019-06-20T00:08:49.522Z,17.30
2019-06-20T00:11:17.232Z,17.30
2019-06-20T00:13:44.990Z,16.70
2019-06-20T00:16:12.626Z,16.40
2019-06-20T00:18:40.271Z,17.90
2019-06-20T00:21:07.963Z,18.80
2019-06-20T00:23:35.618Z,18.80
2019-06-20T00:26:03.488Z,19.60
2019-06-20T00:28:31.223Z,18.70
2019-06-20T00:30:58.878Z,19.10
2019-06-20T00:33:26.522Z,18.40
2019-06-20T00:35:54.193Z,18.40
2019-06-20T00:38:21.911Z,18.00
2019-06-20T00:40:49.554Z,17.90
2019-06-20T00:43:18.380Z,18.40
2019-06-20T00:45:46.259Z,18.10
2019-06-20T00:48:13.894Z,17.80
2019-06-20T00:50:41.555Z,19.60
2019-06-20T00:53:10.112Z,19.50
2019-06-20T00:55:37.759Z,19.80
2019-06-20T00:58:05.506Z,20.00
2019-06-20T01:03:19.351Z,21.20
2019-06-20T01:05:48.208Z,20.90
2019-06-20T01:08:15.856Z,21.00
2019-06-20T01:10:43.500Z,21.20
2019-06-20T01:13:11.126Z,22.00
2019-06-20T01:15:38.906Z,22.00
2019-06-20T01:18:06.671Z,21.60
2019-06-20T01:20:34.297Z,21.20
2019-06-20T01:23:01.988Z,21.10
2019-06-20T01:25:41.036Z,19.70
2019-06-20T01:28:09.653Z,20.60
2019-06-20T01:30:37.939Z,20.70
2019-06-20T01:33:06.250Z,21.80
2019-06-20T01:35:34.015Z,23.60
2019-06-20T01:38:01.916Z,21.20
2019-06-20T01:40:29.568Z,21.10
2019-06-20T01:42:57.203Z,22.60
2019-06-20T01:45:24.887Z,20.50
2019-06-20T01:47:52.536Z,20.80
2019-06-20T01:50:20.230Z,21.70
2019-06-20T01:52:47.959Z,22.50
2019-06-20T01:55:15.776Z,23.30
2019-06-20T01:57:43.466Z,23.20
2019-06-20T02:00:13.099Z,22.90
2019-06-20T02:02:40.830Z,24.30
2019-06-20T02:05:08.592Z,22.70
2019-06-20T02:07:36.295Z,23.60
2019-06-20T02:10:05.999Z,22.30
2019-06-20T02:12:33.764Z,21.70
2019-06-20T02:15:01.448Z,23.80
2019-06-20T02:17:29.226Z,22.30
2019-06-20T02:19:56.879Z,23.60
2019-06-20T02:22:24.503Z,23.70
2019-06-20T02:24:52.191Z,24.20
2019-06-20T02:27:20.995Z,24.10
2019-06-20T02:29:48.644Z,24.80
2019-06-20T02:32:16.385Z,23.80
2019-06-20T02:34:44.095Z,24.40
2019-06-20T02:37:11.807Z,24.10
2019-06-20T02:39:39.559Z,26.40
2019-06-20T02:42:08.737Z,25.00
2019-06-20T02:44:36.463Z,24.80
2019-06-20T02:47:04.284Z,25.50
2019-06-20T02:49:31.923Z,24.20
2019-06-20T02:51:59.723Z,24.70
2019-06-20T02:54:28.989Z,24.80
2019-06-20T02:56:56.639Z,25.10
2019-06-20T02:59:24.371Z,25.20
2019-06-20T03:01:52.050Z,25.60
2019-06-20T03:04:19.795Z,25.90
2019-06-20T03:06:47.543Z,27.10
2019-06-20T03:09:15.521Z,26.60
2019-06-20T03:11:43.238Z,26.70
2019-06-20T03:14:10.946Z,26.70
2019-06-20T03:16:38.630Z,27.40
2019-06-20T03:19:06.371Z,27.60
2019-06-20T03:21:34.063Z,27.80
2019-06-20T03:24:01.736Z,27.70
2019-06-20T03:26:29.472Z,27.10
2019-06-20T03:28:57.183Z,27.50
2019-06-20T03:31:24.873Z,27.70
2019-06-20T03:33:52.589Z,28.30
2019-06-20T03:36:20.318Z,26.90
2019-06-20T03:38:48.976Z,27.60
2019-06-20T03:41:16.612Z,27.30
2019-06-20T03:43:44.251Z,28.00
2019-06-20T03:46:11.922Z,28.70
2019-06-20T03:48:39.644Z,29.50
2019-06-20T03:51:07.371Z,28.30
2019-06-20T03:53:35.097Z,28.70
2019-06-20T03:56:02.748Z,28.30
2019-06-20T03:58:30.390Z,27.80
2019-06-20T04:00:58.146Z,28.60
2019-06-20T04:03:25.780Z,28.50
2019-06-20T04:05:53.503Z,29.50
2019-06-20T04:08:21.178Z,28.90
2019-06-20T04:10:48.840Z,28.60
2019-06-20T04:13:16.592Z,28.30
2019-06-20T04:15:44.341Z,29.30
2019-06-20T04:18:12.046Z,28.70
2019-06-20T04:20:39.691Z,29.20
2019-06-20T04:23:08.893Z,28.30
2019-06-20T04:25:36.613Z,28.10
2019-06-20T04:28:04.327Z,27.50
2019-06-20T04:30:32.008Z,28.10
2019-06-20T04:32:59.710Z,27.80
2019-06-20T04:35:27.421Z,28.60
2019-06-20T04:37:55.109Z,29.70
2019-06-20T04:40:22.817Z,29.50
2019-06-20T04:42:50.532Z,29.20
2019-06-20T04:45:31.416Z,30.10
2019-06-20T04:47:47.735Z,29.70
2019-06-20T04:50:15.389Z,29.40
2019-06-20T04:52:43.163Z,29.60
2019-06-20T04:55:11.247Z,30.10
2019-06-20T04:57:38.889Z,29.10
2019-06-20T05:00:07.817Z,29.50
2019-06-20T05:02:35.535Z,28.80
2019-06-20T05:05:05.311Z,28.50
2019-06-20T05:07:33.206Z,29.20
2019-06-20T05:10:00.902Z,29.00
2019-06-20T05:12:28.539Z,28.70
2019-06-20T05:14:56.902Z,28.30
2019-06-20T05:17:24.542Z,29.50
2019-06-20T05:19:52.660Z,29.30
2019-06-20T05:22:20.408Z,27.80
2019-06-20T05:24:48.052Z,25.30
2019-06-20T05:27:15.792Z,25.70
2019-06-20T05:29:43.503Z,27.70
2019-06-20T05:32:12.153Z,28.60
2019-06-20T05:34:39.870Z,27.80
2019-06-20T05:37:07.931Z,28.30
2019-06-20T05:39:35.570Z,28.60
2019-06-20T05:42:03.355Z,26.60
2019-06-20T05:44:31.032Z,26.60
2019-06-20T05:47:11.926Z,27.20
2019-06-20T05:49:28.056Z,26.20
2019-06-20T05:51:55.775Z,27.60
2019-06-20T05:54:23.434Z,27.60
2019-06-20T05:56:51.088Z,26.60
2019-06-20T05:59:18.767Z,25.10
2019-06-20T06:01:46.993Z,26.40
2019-06-20T06:04:15.746Z,27.30
2019-06-20T06:06:43.411Z,26.80
2019-06-20T06:09:11.051Z,27.40
2019-06-20T06:11:38.695Z,27.30
2019-06-20T06:14:06.377Z,27.30
2019-06-20T06:16:34.081Z,27.30
2019-06-20T06:19:01.722Z,26.40
2019-06-20T06:21:29.515Z,25.10
2019-06-20T06:23:57.224Z,25.90
2019-06-20T06:26:24.869Z,24.30
2019-06-20T06:28:52.607Z,24.30
2019-06-20T06:31:20.247Z,24.60
2019-06-20T06:33:47.887Z,25.30
2019-06-20T06:36:15.566Z,25.70
2019-06-20T06:38:43.276Z,25.30
2019-06-20T06:41:10.919Z,25.80
2019-06-20T06:43:42.076Z,24.60
2019-06-20T06:46:07.979Z,24.70
2019-06-20T06:48:35.768Z,24.80
2019-06-20T06:51:03.667Z,23.70
2019-06-20T06:53:31.301Z,23.60
2019-06-20T06:55:58.946Z,24.60
2019-06-20T06:58:26.694Z,24.70
2019-06-20T07:00:54.587Z,23.70
2019-06-20T07:03:22.235Z,22.80
2019-06-20T07:05:49.957Z,22.10
2019-06-20T07:08:17.674Z,20.50
2019-06-20T07:10:45.324Z,20.50
2019-06-20T07:13:13.048Z,19.20
2019-06-20T07:15:40.687Z,20.00
2019-06-20T07:18:08.333Z,20.40
2019-06-20T07:20:36.016Z,19.60
2019-06-20T07:23:03.723Z,19.80
2019-06-20T07:25:31.386Z,19.90
2019-06-20T07:27:59.104Z,19.90
2019-06-20T07:30:26.835Z,19.50
2019-06-20T07:32:54.556Z,18.80
2019-06-20T07:35:22.283Z,19.70
2019-06-20T07:37:49.934Z,19.30
2019-06-20T07:40:17.708Z,20.40
2019-06-20T07:42:45.443Z,20.00
2019-06-20T07:45:14.219Z,19.40
2019-06-20T07:47:41.984Z,18.40
2019-06-20T07:50:10.342Z,18.90
2019-06-20T07:52:37.981Z,18.20
2019-06-20T07:55:07.536Z,19.20
2019-06-20T07:57:35.267Z,18.40
2019-06-20T08:00:06.072Z,14.30
2019-06-20T08:02:34.384Z,16.10
2019-06-20T08:05:02.299Z,15.40
2019-06-20T08:07:30.106Z,16.00
2019-06-20T08:09:57.855Z,15.90
2019-06-20T08:12:26.438Z,15.50
2019-06-20T08:14:54.088Z,15.40
2019-06-20T08:17:34.837Z,15.70
2019-06-20T08:19:51.114Z,14.80
2019-06-20T08:22:18.758Z,14.00
2019-06-20T08:24:46.402Z,14.90
2019-06-20T08:27:14.955Z,13.50
2019-06-20T08:29:42.893Z,13.40
2019-06-20T08:32:10.582Z,12.70
2019-06-20T08:34:38.254Z,13.80
2019-06-20T08:37:06.418Z,12.80
2019-06-20T08:39:34.187Z,12.90
2019-06-20T08:42:02.136Z,12.20
2019-06-20T08:44:29.870Z,13.40
2019-06-20T08:46:59.385Z,14.60
2019-06-20T08:49:27.038Z,13.00
2019-06-20T08:51:56.207Z,14.10
2019-06-20T08:54:24.187Z,14.70
2019-06-20T08:56:51.879Z,15.50
2019-06-20T08:59:24.313Z,15.10
2019-06-20T09:01:48.891Z,14.90
2019-06-20T09:04:16.627Z,13.50
2019-06-20T09:06:44.264Z,15.30
2019-06-20T09:09:12.007Z,15.00
2019-06-20T09:11:39.708Z,16.00
2019-06-20T09:14:07.371Z,11.90
2019-06-20T09:16:35.087Z,14.20
2019-06-20T09:19:02.910Z,15.40
2019-06-20T09:21:30.561Z,15.70
2019-06-20T09:23:59.918Z,14.80
2019-06-20T09:26:27.739Z,14.00
2019-06-20T09:28:55.663Z,15.90
2019-06-20T09:31:23.417Z,16.20
2019-06-20T09:33:52.100Z,13.90
2019-06-20T09:36:20.513Z,14.00
2019-06-20T09:38:48.234Z,12.00
2019-06-20T09:41:15.999Z,12.70
2019-06-20T09:43:43.706Z,12.80
2019-06-20T09:46:11.358Z,13.40
2019-06-20T09:48:39.033Z,13.40
2019-06-20T09:51:06.676Z,12.20
2019-06-20T09:53:34.428Z,12.50
2019-06-20T09:56:02.128Z,11.50
2019-06-20T09:58:29.858Z,11.80
2019-06-20T10:00:57.639Z,10.80
2019-06-20T10:03:25.323Z,10.90
2019-06-20T10:05:52.999Z,12.60
2019-06-20T10:08:20.679Z,12.80
2019-06-20T10:10:49.304Z,12.30
2019-06-20T10:13:17.715Z,12.20
2019-06-20T10:15:46.688Z,12.90
2019-06-20T10:18:14.771Z,12.70
2019-06-20T10:20:42.481Z,12.40
2019-06-20T10:23:10.199Z,12.60
2019-06-20T10:25:38.301Z,12.90
2019-06-20T10:28:07.551Z,13.70
2019-06-20T10:30:35.190Z,14.80
2019-06-20T10:33:02.850Z,13.80
2019-06-20T10:35:30.488Z,13.00
2019-06-20T10:37:58.122Z,12.30
2019-06-20T10:40:26.046Z,12.50
2019-06-20T10:42:54.346Z,12.90
2019-06-20T10:45:23.840Z,13.10
2019-06-20T10:47:52.923Z,13.70
2019-06-20T10:50:20.994Z,12.90
2019-06-20T10:52:50.005Z,12.30
2019-06-20T10:55:18.456Z,13.80
2019-06-20T10:57:46.747Z,13.10
2019-06-20T11:00:29.749Z,13.80
2019-06-20T11:02:47.057Z,14.70
2019-06-20T11:05:16.794Z,13.20
2019-06-20T11:07:45.658Z,15.20
2019-06-20T11:10:15.658Z,13.10
2019-06-20T11:12:52.175Z,12.70
2019-06-20T11:15:13.370Z,12.70
2019-06-20T11:17:41.934Z,12.60
2019-06-20T11:20:10.739Z,14.00
2019-06-20T11:22:39.781Z,12.60
2019-06-20T11:25:08.650Z,12.30
2019-06-20T11:27:37.661Z,10.90
2019-06-20T11:30:17.810Z,10.80
2019-06-20T11:32:45.798Z,12.10
2019-06-20T11:35:13.618Z,10.80
2019-06-20T11:37:42.285Z,11.20
2019-06-20T11:40:12.286Z,11.40
2019-06-20T11:42:40.012Z,11.20
2019-06-20T11:45:08.279Z,10.90
2019-06-20T11:47:36.631Z,13.70
2019-06-20T11:50:06.411Z,11.30
2019-06-20T11:52:38.811Z,9.70
2019-06-20T11:55:06.003Z,10.70
2019-06-20T11:57:33.645Z,11.70
2019-06-20T12:00:01.284Z,8.70
2019-06-20T12:02:28.979Z,11.40
2019-06-20T12:04:57.345Z,10.80
2019-06-20T12:07:24.974Z,9.50
2019-06-20T12:09:52.638Z,11.10
2019-06-20T12:12:21.211Z,12.00
2019-06-20T12:14:48.910Z,10.80
2019-06-20T12:17:16.577Z,11.10
2019-06-20T12:19:44.633Z,9.40
2019-06-20T12:22:12.350Z,9.60
2019-06-20T12:24:41.270Z,9.80
2019-06-20T12:27:09.454Z,8.60
2019-06-20T12:29:37.732Z,8.00
2019-06-20T12:32:09.793Z,8.00
2019-06-20T12:34:35.995Z,9.00
2019-06-20T12:37:03.631Z,9.00
2019-06-20T12:39:31.295Z,8.80
2019-06-20T12:41:59.008Z,8.90
2019-06-20T12:44:26.642Z,11.50
2019-06-20T12:46:54.332Z,10.00
2019-06-20T12:49:24.036Z,10.50
2019-06-20T12:51:51.886Z,11.70
2019-06-20T12:54:19.582Z,12.10
2019-06-20T12:56:48.284Z,11.40
2019-06-20T12:59:16.039Z,10.30
2019-06-20T13:01:46.543Z,13.40
2019-06-20T13:04:13.090Z,13.60
2019-06-20T13:06:42.193Z,15.50
2019-06-20T13:09:10.082Z,15.60
2019-06-20T13:11:39.123Z,16.80
2019-06-20T13:14:07.152Z,10.30
2019-06-20T13:16:34.816Z,10.20
2019-06-20T13:19:02.455Z,13.90
2019-06-20T13:21:30.098Z,15.20
2019-06-20T13:23:57.846Z,16.80
2019-06-20T13:26:25.567Z,17.90
2019-06-20T13:29:03.268Z,18.00
2019-06-20T13:31:22.732Z,18.60
2019-06-20T13:33:50.847Z,21.50
2019-06-20T13:36:18.488Z,22.80
2019-06-20T13:38:46.713Z,20.60
2019-06-20T13:41:14.460Z,19.80
2019-06-20T13:43:42.180Z,22.20
2019-06-20T13:46:09.930Z,22.20
2019-06-20T13:48:38.903Z,21.50
2019-06-20T13:51:07.019Z,21.60
2019-06-20T13:53:34.755Z,21.30
2019-06-20T13:56:02.601Z,20.90
2019-06-20T13:58:30.267Z,19.40
2019-06-20T14:00:58.083Z,18.30
2019-06-20T14:03:25.723Z,17.60
2019-06-20T14:05:53.894Z,16.70
2019-06-20T14:08:21.553Z,17.40
2019-06-20T14:10:49.820Z,17.90
2019-06-20T14:13:19.431Z,17.30
2019-06-20T14:15:48.449Z,16.90
2019-06-20T14:18:16.310Z,17.40
2019-06-20T14:20:44.901Z,17.10
2019-06-20T14:23:12.691Z,16.90
2019-06-20T14:25:40.334Z,17.70
2019-06-20T14:28:09.019Z,19.10
2019-06-20T14:30:36.680Z,19.20
2019-06-20T14:33:04.383Z,20.90
2019-06-20T14:35:32.102Z,30.20
2019-06-20T14:38:00.729Z,28.70
2019-06-20T14:40:28.411Z,38.20
2019-06-20T14:42:56.046Z,33.30
2019-06-20T14:45:23.784Z,33.30
2019-06-20T14:47:52.686Z,36.40
2019-06-20T14:50:22.025Z,36.10
2019-06-20T14:52:51.743Z,37.20
2019-06-20T14:55:20.823Z,37.10
2019-06-20T14:57:50.222Z,37.40
2019-06-20T15:00:19.819Z,38.10
2019-06-20T15:02:51.801Z,39.00
2019-06-20T15:05:18.361Z,40.60
2019-06-20T15:07:47.346Z,41.30
2019-06-20T15:10:17.232Z,41.60
2019-06-20T15:12:46.437Z,41.50
2019-06-20T15:15:15.384Z,41.20
2019-06-20T15:17:43.135Z,40.20
2019-06-20T15:20:13.286Z,40.30
2019-06-20T15:22:41.411Z,39.90
2019-06-20T15:25:09.212Z,38.30
2019-06-20T15:27:36.912Z,37.90
2019-06-20T15:30:06.313Z,37.50
2019-06-20T15:32:33.968Z,36.60
2019-06-20T15:35:01.981Z,36.30
2019-06-20T15:37:29.860Z,35.50
2019-06-20T15:39:57.574Z,35.30
2019-06-20T15:42:25.222Z,33.90
2019-06-20T15:44:53.790Z,33.80
2019-06-20T15:47:21.510Z,33.60
2019-06-20T15:49:49.146Z,34.20
2019-06-20T15:52:16.898Z,35.40
2019-06-20T15:54:44.571Z,36.90
2019-06-20T15:57:13.805Z,36.40
2019-06-20T15:59:42.268Z,35.70
2019-06-20T16:02:10.119Z,36.80
2019-06-20T16:04:39.007Z,36.40
2019-06-20T16:07:06.749Z,35.40
2019-06-20T16:09:36.035Z,34.90
2019-06-20T16:12:03.921Z,34.30
2019-06-20T16:14:31.670Z,33.60
2019-06-20T16:16:59.320Z,34.60
2019-06-20T16:19:26.963Z,33.40
2019-06-20T16:21:54.718Z,32.20
2019-06-20T16:24:22.488Z,33.70
2019-06-20T16:26:50.350Z,32.90
2019-06-20T16:29:18.023Z,30.80
2019-06-20T16:31:45.681Z,32.00
2019-06-20T16:34:13.390Z,32.50
2019-06-20T16:36:41.128Z,32.00
2019-06-20T16:39:08.923Z,31.60
2019-06-20T16:41:36.698Z,32.00
2019-06-20T16:44:04.931Z,33.00
2019-06-20T16:46:32.647Z,32.90
2019-06-20T16:49:00.355Z,32.20
2019-06-20T16:51:28.122Z,32.00
2019-06-20T16:53:55.862Z,33.10
2019-06-20T16:56:24.327Z,33.20
2019-06-20T16:58:52.078Z,34.10
2019-06-20T17:01:19.720Z,34.10
2019-06-20T17:03:47.362Z,34.20
2019-06-20T17:06:15.096Z,34.40
2019-06-20T17:08:42.758Z,34.50
2019-06-20T17:11:10.451Z,33.80
2019-06-20T17:13:38.167Z,35.30
2019-06-20T17:16:05.877Z,34.50
2019-06-20T17:18:33.603Z,34.50
2019-06-20T17:21:01.426Z,34.90
2019-06-20T17:23:29.075Z,35.10
2019-06-20T17:25:56.711Z,34.90
2019-06-20T17:28:24.374Z,34.50
2019-06-20T17:30:52.020Z,35.30
2019-06-20T17:33:19.663Z,35.30
2019-06-20T17:35:47.417Z,35.50
2019-06-20T17:38:15.190Z,36.20
2019-06-20T17:40:42.909Z,35.40
2019-06-20T17:43:10.594Z,35.90
2019-06-20T17:45:38.238Z,36.00
2019-06-20T17:48:05.974Z,35.40
2019-06-20T17:50:33.639Z,36.30
2019-06-20T17:53:01.370Z,35.50
2019-06-20T17:55:29.954Z,35.40
2019-06-20T17:57:57.614Z,35.30
2019-06-20T18:00:25.603Z,35.50
2019-06-20T18:02:53.404Z,36.60
2019-06-20T18:05:21.229Z,37.50
2019-06-20T18:07:49.618Z,38.00
2019-06-20T18:10:17.872Z,37.50
2019-06-20T18:12:45.605Z,38.00
2019-06-20T18:15:13.987Z,38.30
2019-06-20T18:17:41.634Z,39.00
2019-06-20T18:20:11.650Z,39.30
2019-06-20T18:22:39.389Z,40.10
2019-06-20T18:25:07.700Z,40.40
2019-06-20T18:27:35.448Z,40.50
2019-06-20T18:30:06.176Z,40.50
2019-06-20T18:32:33.928Z,40.90
2019-06-20T18:35:02.592Z,41.10
2019-06-20T18:37:31.881Z,41.50
2019-06-20T18:39:59.731Z,42.10
2019-06-20T18:42:27.516Z,42.10
2019-06-20T18:44:55.178Z,42.10
2019-06-20T18:47:22.886Z,42.20
2019-06-20T18:49:50.964Z,41.50
2019-06-20T18:52:18.671Z,42.10
2019-06-20T18:54:46.346Z,43.00
2019-06-20T18:57:14.063Z,43.80
2019-06-20T18:59:41.764Z,43.30
2019-06-20T19:02:09.424Z,43.30
2019-06-20T19:04:48.040Z,43.50
2019-06-20T19:07:06.707Z,43.80
2019-06-20T19:09:34.566Z,43.40
2019-06-20T19:12:02.373Z,43.90
2019-06-20T19:14:30.078Z,43.80
2019-06-20T19:16:57.786Z,44.30
2019-06-20T19:19:25.457Z,44.30
2019-06-20T19:21:53.513Z,44.20
2019-06-20T19:24:22.775Z,44.20
2019-06-20T19:26:50.587Z,44.30
2019-06-20T19:29:18.241Z,44.00
2019-06-20T19:31:45.898Z,42.90
2019-06-20T19:34:13.637Z,43.50
2019-06-20T19:36:41.283Z,43.90
2019-06-20T19:39:08.925Z,44.30
2019-06-20T19:41:36.682Z,44.00
2019-06-20T19:44:05.457Z,44.40
2019-06-20T19:46:33.234Z,44.00
2019-06-20T19:49:00.963Z,44.60
2019-06-20T19:51:28.675Z,44.20
2019-06-20T19:53:56.318Z,45.00
2019-06-20T19:56:24.134Z,45.20
2019-06-20T19:58:53.319Z,45.30
2019-06-20T20:01:20.992Z,45.50
2019-06-20T20:03:49.633Z,46.00
2019-06-20T20:06:17.418Z,46.00
2019-06-20T20:08:45.071Z,45.90
2019-06-20T20:11:12.810Z,46.00
2019-06-20T20:13:40.457Z,46.10
2019-06-20T20:16:08.211Z,46.20
2019-06-20T20:18:35.930Z,45.80
2019-06-20T20:21:03.766Z,46.60
2019-06-20T20:23:31.439Z,46.20
2019-06-20T20:25:59.109Z,45.30
2019-06-20T20:28:26.814Z,45.40
2019-06-20T20:30:54.451Z,44.90
2019-06-20T20:33:22.110Z,44.50
2019-06-20T20:35:49.769Z,44.10
2019-06-20T20:38:17.488Z,44.30
2019-06-20T20:40:45.310Z,44.60
2019-06-20T20:43:12.994Z,43.80
2019-06-20T20:45:41.695Z,44.20
2019-06-20T20:48:09.378Z,44.80
2019-06-20T20:50:37.018Z,45.10
2019-06-20T20:53:05.019Z,43.60
2019-06-20T20:55:32.820Z,42.60
2019-06-20T20:58:00.462Z,43.00
2019-06-20T21:00:34.059Z,43.60
2019-06-20T21:03:02.176Z,44.10
2019-06-20T21:05:30.751Z,44.50
2019-06-20T21:07:58.416Z,44.90
2019-06-20T21:10:26.271Z,44.70
2019-06-20T21:12:53.967Z,44.60
2019-06-20T21:15:21.963Z,45.00
2019-06-20T21:17:49.691Z,44.50
2019-06-20T21:20:18.079Z,44.90
2019-06-20T21:22:46.069Z,45.10
2019-06-20T21:25:14.544Z,45.40
2019-06-20T21:27:42.250Z,44.90
2019-06-20T21:30:11.895Z,44.60
2019-06-20T21:32:39.560Z,45.00
2019-06-20T21:35:08.917Z,45.60
2019-06-20T21:37:36.847Z,45.20
2019-06-20T21:40:05.798Z,44.80
2019-06-20T21:42:33.585Z,44.80
2019-06-20T21:45:01.355Z,46.10
2019-06-20T21:47:29.019Z,44.90
2019-06-20T21:49:56.794Z,45.50
2019-06-20T21:52:25.081Z,45.70
2019-06-20T21:54:52.819Z,45.30
2019-06-20T21:57:21.471Z,45.50
2019-06-20T21:59:49.179Z,45.60
2019-06-20T22:02:16.918Z,45.50
2019-06-20T22:04:54.119Z,46.00
2019-06-20T22:07:14.082Z,46.30
2019-06-20T22:09:41.738Z,46.20
2019-06-20T22:12:10.924Z,46.20
2019-06-20T22:14:38.683Z,45.90
2019-06-20T22:17:06.357Z,46.40
2019-06-20T22:19:33.999Z,46.10
2019-06-20T22:22:01.641Z,45.70
2019-06-20T22:24:29.428Z,46.20
2019-06-20T22:26:57.067Z,45.40
2019-06-20T22:29:24.703Z,46.30
2019-06-20T22:31:52.665Z,46.50
2019-06-20T22:34:20.404Z,47.00
2019-06-20T22:36:48.104Z,47.00
2019-06-20T22:39:15.838Z,47.90
2019-06-20T22:41:43.488Z,48.30
2019-06-20T22:44:11.147Z,48.10
2019-06-20T22:46:38.878Z,48.50
2019-06-20T22:49:06.694Z,49.00
2019-06-20T22:51:34.354Z,49.00
2019-06-20T22:54:02.083Z,49.00
2019-06-20T22:56:29.771Z,49.10
2019-06-20T22:58:57.425Z,49.30
2019-06-20T23:01:25.274Z,48.70
2019-06-20T23:03:52.951Z,49.10
2019-06-20T23:06:20.600Z,49.00
2019-06-20T23:08:48.408Z,48.80
2019-06-20T23:11:16.053Z,49.20
2019-06-20T23:13:43.785Z,48.90
2019-06-20T23:16:11.545Z,49.40
2019-06-20T23:18:39.208Z,49.00
2019-06-20T23:21:06.898Z,48.70
2019-06-20T23:23:34.577Z,49.40
2019-06-20T23:26:02.214Z,49.30
2019-06-20T23:28:29.856Z,48.60
2019-06-20T23:30:57.567Z,48.70
2019-06-20T23:33:25.239Z,49.20
2019-06-20T23:35:52.883Z,49.10
2019-06-20T23:38:20.569Z,49.00
2019-06-20T23:40:48.202Z,48.60
2019-06-20T23:43:15.847Z,48.40
2019-06-20T23:45:43.964Z,48.10
2019-06-20T23:48:11.604Z,49.10
2019-06-20T23:50:39.248Z,48.80
2019-06-20T23:53:07.067Z,47.90
2019-06-20T23:55:34.784Z,48.70
2019-06-20T23:58:02.496Z,49.90
